sensor_id;sensor_type;location;lat;lon;timestamp;temperature;humidity
71879;DHT22;59755;43.834;4.364;2023-09-07T20:46:41;24.50;52.60
71879;DHT22;59755;43.834;4.364;2023-09-07T20:49:07;24.10;52.70
71879;DHT22;59755;43.834;4.364;2023-09-07T20:51:32;24.20;52.70
71879;DHT22;59755;43.834;4.364;2023-09-07T20:53:59;24.20;52.80
71879;DHT22;59755;43.834;4.364;2023-09-07T20:56:25;24.20;52.90
71879;DHT22;59755;43.834;4.364;2023-09-07T20:58:51;24.10;53.20
71879;DHT22;59755;43.834;4.364;2023-09-07T21:01:16;24.20;53.00
71879;DHT22;59755;43.834;4.364;2023-09-07T21:03:42;24.30;52.90
71879;DHT22;59755;43.834;4.364;2023-09-07T21:06:07;24.30;52.80
71879;DHT22;59755;43.834;4.364;2023-09-07T21:08:33;24.20;53.10
71879;DHT22;59755;43.834;4.364;2023-09-07T21:10:58;24.00;53.70
71879;DHT22;59755;43.834;4.364;2023-09-07T21:13:24;24.00;53.80
71879;DHT22;59755;43.834;4.364;2023-09-07T21:15:49;23.90;54.10
71879;DHT22;59755;43.834;4.364;2023-09-07T21:18:15;23.90;54.30
71879;DHT22;59755;43.834;4.364;2023-09-07T21:20:41;23.90;54.20
71879;DHT22;59755;43.834;4.364;2023-09-07T21:23:06;23.90;54.40
71879;DHT22;59755;43.834;4.364;2023-09-07T21:25:32;23.90;54.50
71879;DHT22;59755;43.834;4.364;2023-09-07T21:27:57;23.90;54.60
71879;DHT22;59755;43.834;4.364;2023-09-07T21:30:23;23.80;54.80
71879;DHT22;59755;43.834;4.364;2023-09-07T21:32:48;23.80;55.10
71879;DHT22;59755;43.834;4.364;2023-09-07T21:35:14;23.90;55.00
71879;DHT22;59755;43.834;4.364;2023-09-07T21:37:40;23.90;55.30
71879;DHT22;59755;43.834;4.364;2023-09-07T21:40:06;23.90;55.50
71879;DHT22;59755;43.834;4.364;2023-09-07T21:42:32;23.90;55.50
71879;DHT22;59755;43.834;4.364;2023-09-07T21:44:58;23.80;55.90
71879;DHT22;59755;43.834;4.364;2023-09-07T21:47:24;23.80;56.00
71879;DHT22;59755;43.834;4.364;2023-09-07T21:49:50;23.80;56.00
71879;DHT22;59755;43.834;4.364;2023-09-07T21:52:16;23.90;55.90
71879;DHT22;59755;43.834;4.364;2023-09-07T21:54:41;23.80;55.60
71879;DHT22;59755;43.834;4.364;2023-09-07T21:57:10;23.90;55.70
71879;DHT22;59755;43.834;4.364;2023-09-07T21:59:36;23.80;55.90
71879;DHT22;59755;43.834;4.364;2023-09-07T22:02:01;23.70;56.20
71879;DHT22;59755;43.834;4.364;2023-09-07T22:04:27;23.70;55.60
71879;DHT22;59755;43.834;4.364;2023-09-07T22:06:53;23.60;55.60
71879;DHT22;59755;43.834;4.364;2023-09-07T22:09:18;23.60;55.40
71879;DHT22;59755;43.834;4.364;2023-09-07T22:11:44;23.60;55.40
71879;DHT22;59755;43.834;4.364;2023-09-07T22:14:09;23.50;55.50
71879;DHT22;59755;43.834;4.364;2023-09-07T22:16:35;23.40;55.90
71879;DHT22;59755;43.834;4.364;2023-09-07T22:19:01;23.10;56.50
71879;DHT22;59755;43.834;4.364;2023-09-07T22:21:26;23.10;56.70
71879;DHT22;59755;43.834;4.364;2023-09-07T22:23:52;23.00;57.10
71879;DHT22;59755;43.834;4.364;2023-09-07T22:26:18;22.90;57.30
71879;DHT22;59755;43.834;4.364;2023-09-07T22:28:43;22.90;57.30
71879;DHT22;59755;43.834;4.364;2023-09-07T22:31:09;22.80;57.40
71879;DHT22;59755;43.834;4.364;2023-09-07T22:33:34;22.70;57.80
71879;DHT22;59755;43.834;4.364;2023-09-07T22:36:00;22.70;57.60
71879;DHT22;59755;43.834;4.364;2023-09-07T22:38:25;22.80;57.50
71879;DHT22;59755;43.834;4.364;2023-09-07T22:40:54;22.90;57.40
71879;DHT22;59755;43.834;4.364;2023-09-07T22:43:21;22.90;57.10
71879;DHT22;59755;43.834;4.364;2023-09-07T22:45:47;22.90;56.70
71879;DHT22;59755;43.834;4.364;2023-09-07T22:48:12;22.90;56.60
71879;DHT22;59755;43.834;4.364;2023-09-07T22:50:38;22.80;56.70
71879;DHT22;59755;43.834;4.364;2023-09-07T22:53:03;22.70;56.90
71879;DHT22;59755;43.834;4.364;2023-09-07T22:55:42;22.70;57.20
71879;DHT22;59755;43.834;4.364;2023-09-07T22:58:08;22.60;57.10
71879;DHT22;59755;43.834;4.364;2023-09-07T23:00:34;22.60;57.30
71879;DHT22;59755;43.834;4.364;2023-09-07T23:03:00;22.50;57.50
71879;DHT22;59755;43.834;4.364;2023-09-07T23:05:26;22.60;57.10
71879;DHT22;59755;43.834;4.364;2023-09-07T23:07:51;22.60;57.30
71879;DHT22;59755;43.834;4.364;2023-09-07T23:10:17;22.70;56.80
71879;DHT22;59755;43.834;4.364;2023-09-07T23:12:46;22.80;56.10
71879;DHT22;59755;43.834;4.364;2023-09-07T23:15:11;22.90;55.60
71879;DHT22;59755;43.834;4.364;2023-09-07T23:17:37;23.00;55.30
71879;DHT22;59755;43.834;4.364;2023-09-07T23:20:03;23.00;55.20
71879;DHT22;59755;43.834;4.364;2023-09-07T23:22:29;22.80;55.30
71879;DHT22;59755;43.834;4.364;2023-09-07T23:24:55;22.70;55.50
71879;DHT22;59755;43.834;4.364;2023-09-07T23:27:21;22.60;55.60
71879;DHT22;59755;43.834;4.364;2023-09-07T23:29:47;22.50;55.80
71879;DHT22;59755;43.834;4.364;2023-09-07T23:32:12;22.40;56.30
71879;DHT22;59755;43.834;4.364;2023-09-07T23:34:38;22.40;56.50
71879;DHT22;59755;43.834;4.364;2023-09-07T23:37:03;22.50;56.60
71879;DHT22;59755;43.834;4.364;2023-09-07T23:39:29;22.30;57.30
71879;DHT22;59755;43.834;4.364;2023-09-07T23:41:55;22.30;57.80
71879;DHT22;59755;43.834;4.364;2023-09-07T23:44:20;22.20;58.20
71879;DHT22;59755;43.834;4.364;2023-09-07T23:46:46;22.30;58.10
71879;DHT22;59755;43.834;4.364;2023-09-07T23:49:12;22.40;57.80
71879;DHT22;59755;43.834;4.364;2023-09-07T23:51:37;22.50;58.00
71879;DHT22;59755;43.834;4.364;2023-09-07T23:54:03;22.40;58.40
71879;DHT22;59755;43.834;4.364;2023-09-07T23:56:29;22.40;58.40
71879;DHT22;59755;43.834;4.364;2023-09-07T23:58:54;22.30;58.90
